sensor_id;sensor_type;location;lat;lon;timestamp;pressure;altitude;pressure_sealevel;temperature;humidity
63654;BME280;49809;47.418;19.080;2023-07-31T00:03:22;100151.22;;;18.15;100.00
63654;BME280;49809;47.418;19.080;2023-07-31T00:07:02;100147.19;;;18.04;100.00
63654;BME280;49809;47.418;19.080;2023-07-31T00:10:19;100139.28;;;17.99;100.00
63654;BME280;49809;47.418;19.080;2023-07-31T00:13:39;100137.34;;;17.91;100.00
63654;BME280;49809;47.418;19.080;2023-07-31T00:17:07;100137.34;;;17.91;100.00
63654;BME280;49809;47.418;19.080;2023-07-31T00:20:25;100133.38;;;17.88;100.00
63654;BME280;49809;47.418;19.080;2023-07-31T00:23:42;100151.94;;;17.85;100.00
63654;BME280;49809;47.418;19.080;2023-07-31T00:27:20;100155.81;;;17.78;100.00
63654;BME280;49809;47.418;19.080;2023-07-31T00:30:37;100154.22;;;17.77;100.00
63654;BME280;49809;47.418;19.080;2023-07-31T00:34:07;100148.41;;;17.75;100.00
63654;BME280;49809;47.418;19.080;2023-07-31T00:37:37;100141.28;;;17.71;100.00
63654;BME280;49809;47.418;19.080;2023-07-31T00:40:54;100145.03;;;17.70;100.00
63654;BME280;49809;47.418;19.080;2023-07-31T00:44:22;100145.94;;;17.65;100.00
63654;BME280;49809;47.418;19.080;2023-07-31T00:47:57;100144.97;;;17.61;100.00
63654;BME280;49809;47.418;19.080;2023-07-31T00:51:19;100161.81;;;17.62;100.00
63654;BME280;49809;47.418;19.080;2023-07-31T00:54:42;100157.22;;;17.62;100.00
63654;BME280;49809;47.418;19.080;2023-07-31T00:58:02;100151.88;;;17.62;100.00
63654;BME280;49809;47.418;19.080;2023-07-31T01:01:31;100151.09;;;17.62;100.00
63654;BME280;49809;47.418;19.080;2023-07-31T01:05:04;100161.03;;;17.61;100.00
63654;BME280;49809;47.418;19.080;2023-07-31T01:09:01;100164.88;;;17.55;100.00
63654;BME280;49809;47.418;19.080;2023-07-31T01:12:38;100162.19;;;17.55;100.00
63654;BME280;49809;47.418;19.080;2023-07-31T01:15:55;100168.72;;;17.49;100.00
63654;BME280;49809;47.418;19.080;2023-07-31T01:19:14;100167.34;;;17.52;100.00
63654;BME280;49809;47.418;19.080;2023-07-31T01:26:20;100178.75;;;17.44;100.00
63654;BME280;49809;47.418;19.080;2023-07-31T01:29:59;100179.34;;;17.41;100.00
63654;BME280;49809;47.418;19.080;2023-07-31T01:33:41;100172.69;;;17.38;100.00
63654;BME280;49809;47.418;19.080;2023-07-31T01:37:28;100173.09;;;17.45;100.00
63654;BME280;49809;47.418;19.080;2023-07-31T01:40:53;100176.06;;;17.44;100.00
63654;BME280;49809;47.418;19.080;2023-07-31T01:44:10;100176.28;;;17.47;100.00
63654;BME280;49809;47.418;19.080;2023-07-31T01:47:32;100178.06;;;17.65;100.00
63654;BME280;49809;47.418;19.080;2023-07-31T01:50:49;100168.09;;;17.79;100.00
63654;BME280;49809;47.418;19.080;2023-07-31T01:54:27;100158.87;;;18.08;100.00
63654;BME280;49809;47.418;19.080;2023-07-31T01:57:51;100155.34;;;18.21;100.00
63654;BME280;49809;47.418;19.080;2023-07-31T02:01:27;100152.75;;;18.30;99.42
63654;BME280;49809;47.418;19.080;2023-07-31T02:04:47;100148.91;;;18.22;100.00
63654;BME280;49809;47.418;19.080;2023-07-31T02:08:18;100147.00;;;18.22;100.00
63654;BME280;49809;47.418;19.080;2023-07-31T02:11:38;100142.41;;;18.45;97.59
63654;BME280;49809;47.418;19.080;2023-07-31T02:14:58;100153.41;;;18.57;96.44
63654;BME280;49809;47.418;19.080;2023-07-31T02:18:28;100155.81;;;18.67;95.68
63654;BME280;49809;47.418;19.080;2023-07-31T02:21:51;100147.97;;;18.80;94.03
63654;BME280;49809;47.418;19.080;2023-07-31T02:25:12;100147.53;;;18.78;94.21
63654;BME280;49809;47.418;19.080;2023-07-31T02:28:29;100154.94;;;18.81;93.64
63654;BME280;49809;47.418;19.080;2023-07-31T02:31:59;100162.97;;;18.81;93.74
63654;BME280;49809;47.418;19.080;2023-07-31T02:35:14;100168.91;;;18.69;94.27
63654;BME280;49809;47.418;19.080;2023-07-31T02:38:42;100163.38;;;18.65;94.97
63654;BME280;49809;47.418;19.080;2023-07-31T02:42:05;100165.87;;;18.62;95.57
63654;BME280;49809;47.418;19.080;2023-07-31T02:45:26;100171.06;;;18.58;95.47
63654;BME280;49809;47.418;19.080;2023-07-31T02:48:45;100181.47;;;18.60;95.07
63654;BME280;49809;47.418;19.080;2023-07-31T02:52:07;100180.25;;;18.66;94.71
63654;BME280;49809;47.418;19.080;2023-07-31T02:55:27;100176.47;;;18.67;94.38
63654;BME280;49809;47.418;19.080;2023-07-31T02:58:54;100173.97;;;18.71;94.23
63654;BME280;49809;47.418;19.080;2023-07-31T03:02:18;100178.25;;;18.72;94.24
63654;BME280;49809;47.418;19.080;2023-07-31T03:05:38;100180.56;;;18.64;94.30
63654;BME280;49809;47.418;19.080;2023-07-31T03:09:09;100194.41;;;18.58;95.04
63654;BME280;49809;47.418;19.080;2023-07-31T03:12:27;100188.12;;;18.62;93.97
63654;BME280;49809;47.418;19.080;2023-07-31T03:16:09;100200.56;;;18.58;93.46
63654;BME280;49809;47.418;19.080;2023-07-31T03:19:31;100196.34;;;18.66;93.10
63654;BME280;49809;47.418;19.080;2023-07-31T03:22:49;100199.31;;;18.64;93.17
63654;BME280;49809;47.418;19.080;2023-07-31T03:26:17;100211.62;;;18.65;92.46
63654;BME280;49809;47.418;19.080;2023-07-31T03:29:45;100214.31;;;18.65;92.76
63654;BME280;49809;47.418;19.080;2023-07-31T03:33:02;100212.94;;;18.68;92.48
63654;BME280;49809;47.418;19.080;2023-07-31T03:36:38;100207.72;;;18.72;92.16
63654;BME280;49809;47.418;19.080;2023-07-31T03:40:01;100209.44;;;18.67;92.80
63654;BME280;49809;47.418;19.080;2023-07-31T03:43:21;100204.69;;;18.64;92.46
63654;BME280;49809;47.418;19.080;2023-07-31T03:46:54;100204.88;;;18.68;92.35
63654;BME280;49809;47.418;19.080;2023-07-31T03:50:17;100206.63;;;18.73;91.89
63654;BME280;49809;47.418;19.080;2023-07-31T03:53:50;100206.13;;;18.71;92.08
63654;BME280;49809;47.418;19.080;2023-07-31T03:57:10;100212.16;;;18.76;91.71
63654;BME280;49809;47.418;19.080;2023-07-31T04:00:29;100209.06;;;18.83;91.46
63654;BME280;49809;47.418;19.080;2023-07-31T04:03:56;100212.72;;;18.87;90.99
63654;BME280;49809;47.418;19.080;2023-07-31T04:07:16;100210.22;;;18.99;90.34
63654;BME280;49809;47.418;19.080;2023-07-31T04:10:46;100210.88;;;19.04;89.78
63654;BME280;49809;47.418;19.080;2023-07-31T04:14:04;100220.25;;;19.16;89.00
63654;BME280;49809;47.418;19.080;2023-07-31T04:17:34;100224.53;;;19.17;89.58
63654;BME280;49809;47.418;19.080;2023-07-31T04:20:51;100218.22;;;19.21;89.01
63654;BME280;49809;47.418;19.080;2023-07-31T04:24:25;100225.66;;;19.24;88.84
63654;BME280;49809;47.418;19.080;2023-07-31T04:27:45;100236.75;;;19.31;88.91
63654;BME280;49809;47.418;19.080;2023-07-31T04:31:26;100234.78;;;19.23;88.84
63654;BME280;49809;47.418;19.080;2023-07-31T04:35:01;100234.50;;;19.25;89.43
63654;BME280;49809;47.418;19.080;2023-07-31T04:38:23;100235.06;;;19.13;89.70
63654;BME280;49809;47.418;19.080;2023-07-31T04:41:56;100228.62;;;19.23;89.94
63654;BME280;49809;47.418;19.080;2023-07-31T04:45:14;100229.91;;;19.25;90.14
63654;BME280;49809;47.418;19.080;2023-07-31T04:48:48;100241.25;;;19.22;90.18
63654;BME280;49809;47.418;19.080;2023-07-31T04:52:05;100241.88;;;19.19;90.23
63654;BME280;49809;47.418;19.080;2023-07-31T04:55:37;100232.91;;;19.24;90.03
63654;BME280;49809;47.418;19.080;2023-07-31T04:58:59;100228.81;;;19.26;89.42
63654;BME280;49809;47.418;19.080;2023-07-31T05:02:18;100239.09;;;19.33;89.06
63654;BME280;49809;47.418;19.080;2023-07-31T05:05:38;100242.56;;;19.33;87.67
63654;BME280;49809;47.418;19.080;2023-07-31T05:09:13;100243.72;;;19.41;85.04
63654;BME280;49809;47.418;19.080;2023-07-31T05:12:33;100244.22;;;19.51;83.93
63654;BME280;49809;47.418;19.080;2023-07-31T05:16:01;100252.62;;;19.59;82.97
63654;BME280;49809;47.418;19.080;2023-07-31T05:19:19;100255.34;;;19.76;81.72
63654;BME280;49809;47.418;19.080;2023-07-31T05:22:39;100250.78;;;19.85;78.78
63654;BME280;49809;47.418;19.080;2023-07-31T05:26:05;100248.59;;;19.95;76.96
63654;BME280;49809;47.418;19.080;2023-07-31T05:29:21;100241.97;;;19.93;73.27
63654;BME280;49809;47.418;19.080;2023-07-31T05:32:52;100241.50;;;20.08;72.84
63654;BME280;49809;47.418;19.080;2023-07-31T05:36:15;100247.19;;;20.15;71.90
63654;BME280;49809;47.418;19.080;2023-07-31T05:39:56;100251.75;;;19.98;70.17
63654;BME280;49809;47.418;19.080;2023-07-31T05:43:16;100245.25;;;19.90;71.08
63654;BME280;49809;47.418;19.080;2023-07-31T05:46:45;100252.72;;;19.93;70.24
63654;BME280;49809;47.418;19.080;2023-07-31T05:50:01;100248.09;;;19.85;70.11
63654;BME280;49809;47.418;19.080;2023-07-31T05:53:24;100245.94;;;20.04;69.19
63654;BME280;49809;47.418;19.080;2023-07-31T05:56:54;100241.81;;;19.98;68.50
63654;BME280;49809;47.418;19.080;2023-07-31T06:00:25;100246.69;;;20.05;69.23
63654;BME280;49809;47.418;19.080;2023-07-31T06:03:42;100249.38;;;19.96;68.47
63654;BME280;49809;47.418;19.080;2023-07-31T06:07:02;100253.16;;;19.95;67.83
63654;BME280;49809;47.418;19.080;2023-07-31T06:10:33;100251.13;;;20.09;67.21
63654;BME280;49809;47.418;19.080;2023-07-31T06:13:52;100249.72;;;20.12;68.63
63654;BME280;49809;47.418;19.080;2023-07-31T06:17:22;100253.84;;;20.35;66.86
63654;BME280;49809;47.418;19.080;2023-07-31T06:20:43;100254.16;;;20.51;65.41
63654;BME280;49809;47.418;19.080;2023-07-31T06:24:23;100258.09;;;20.70;64.27
63654;BME280;49809;47.418;19.080;2023-07-31T06:28:34;100250.59;;;20.93;63.04
63654;BME280;49809;47.418;19.080;2023-07-31T06:32:03;100252.09;;;21.29;62.36
63654;BME280;49809;47.418;19.080;2023-07-31T06:35:43;100247.72;;;21.45;61.88
63654;BME280;49809;47.418;19.080;2023-07-31T06:39:20;100243.72;;;22.09;59.54
63654;BME280;49809;47.418;19.080;2023-07-31T06:42:57;100246.41;;;22.30;58.85
63654;BME280;49809;47.418;19.080;2023-07-31T06:46:30;100250.13;;;22.59;57.20
63654;BME280;49809;47.418;19.080;2023-07-31T06:50:00;100251.72;;;22.39;57.03
63654;BME280;49809;47.418;19.080;2023-07-31T06:53:34;100266.72;;;22.28;57.52
63654;BME280;49809;47.418;19.080;2023-07-31T06:57:06;100265.09;;;22.15;56.87
63654;BME280;49809;47.418;19.080;2023-07-31T07:00:45;100276.72;;;22.06;56.36
63654;BME280;49809;47.418;19.080;2023-07-31T07:04:11;100277.47;;;22.16;58.02
63654;BME280;49809;47.418;19.080;2023-07-31T07:07:46;100277.53;;;22.07;57.76
63654;BME280;49809;47.418;19.080;2023-07-31T07:11:08;100281.06;;;21.99;58.03
63654;BME280;49809;47.418;19.080;2023-07-31T07:14:32;100284.25;;;22.22;57.05
63654;BME280;49809;47.418;19.080;2023-07-31T07:18:37;100284.75;;;22.36;56.77
63654;BME280;49809;47.418;19.080;2023-07-31T07:22:10;100281.19;;;22.44;57.17
63654;BME280;49809;47.418;19.080;2023-07-31T07:25:48;100291.50;;;22.83;55.73
63654;BME280;49809;47.418;19.080;2023-07-31T07:29:24;100281.78;;;23.15;55.11
63654;BME280;49809;47.418;19.080;2023-07-31T07:32:59;100276.09;;;22.96;55.46
63654;BME280;49809;47.418;19.080;2023-07-31T07:36:27;100277.34;;;23.56;54.73
63654;BME280;49809;47.418;19.080;2023-07-31T07:40:02;100275.38;;;23.93;53.21
63654;BME280;49809;47.418;19.080;2023-07-31T07:43:34;100285.53;;;23.96;52.51
63654;BME280;49809;47.418;19.080;2023-07-31T07:47:13;100273.53;;;24.21;51.51
63654;BME280;49809;47.418;19.080;2023-07-31T07:51:01;100273.16;;;23.70;53.28
63654;BME280;49809;47.418;19.080;2023-07-31T07:54:44;100281.94;;;24.44;50.91
63654;BME280;49809;47.418;19.080;2023-07-31T07:59:18;100280.69;;;24.41;48.87
63654;BME280;49809;47.418;19.080;2023-07-31T08:15:25;100277.13;;;24.81;46.74
63654;BME280;49809;47.418;19.080;2023-07-31T08:19:16;100278.28;;;25.55;44.93
63654;BME280;49809;47.418;19.080;2023-07-31T08:22:55;100280.25;;;25.73;43.61
63654;BME280;49809;47.418;19.080;2023-07-31T08:26:36;100287.44;;;26.01;42.72
63654;BME280;49809;47.418;19.080;2023-07-31T08:30:12;100267.13;;;26.49;39.97
63654;BME280;49809;47.418;19.080;2023-07-31T08:33:52;100273.69;;;26.86;39.44
63654;BME280;49809;47.418;19.080;2023-07-31T08:37:25;100280.47;;;26.76;38.07
63654;BME280;49809;47.418;19.080;2023-07-31T08:41:21;100280.94;;;27.24;37.47
63654;BME280;49809;47.418;19.080;2023-07-31T08:44:52;100286.12;;;27.33;37.33
63654;BME280;49809;47.418;19.080;2023-07-31T08:48:37;100271.31;;;27.79;37.22
63654;BME280;49809;47.418;19.080;2023-07-31T08:52:14;100272.75;;;28.26;35.31
63654;BME280;49809;47.418;19.080;2023-07-31T08:55:48;100273.75;;;28.44;35.59
63654;BME280;49809;47.418;19.080;2023-07-31T08:59:14;100280.59;;;28.68;34.80
63654;BME280;49809;47.418;19.080;2023-07-31T09:02:54;100270.09;;;28.33;35.88
63654;BME280;49809;47.418;19.080;2023-07-31T09:06:34;100266.06;;;29.30;33.86
63654;BME280;49809;47.418;19.080;2023-07-31T09:10:12;100272.22;;;29.78;32.36
63654;BME280;49809;47.418;19.080;2023-07-31T09:13:48;100270.19;;;29.65;31.96
63654;BME280;49809;47.418;19.080;2023-07-31T09:17:16;100275.28;;;28.75;35.70
63654;BME280;49809;47.418;19.080;2023-07-31T09:21:07;100260.94;;;29.29;33.16
63654;BME280;49809;47.418;19.080;2023-07-31T09:24:27;100259.03;;;30.92;31.61
63654;BME280;49809;47.418;19.080;2023-07-31T09:27:57;100260.78;;;29.55;33.59
63654;BME280;49809;47.418;19.080;2023-07-31T09:31:42;100258.47;;;29.57;31.72
63654;BME280;49809;47.418;19.080;2023-07-31T09:35:30;100263.63;;;29.73;31.21
63654;BME280;49809;47.418;19.080;2023-07-31T09:39:18;100265.44;;;29.51;30.87
63654;BME280;49809;47.418;19.080;2023-07-31T09:42:59;100259.56;;;29.49;31.99
63654;BME280;49809;47.418;19.080;2023-07-31T09:46:27;100258.72;;;29.38;32.81
63654;BME280;49809;47.418;19.080;2023-07-31T09:50:46;100252.53;;;29.45;32.66
63654;BME280;49809;47.418;19.080;2023-07-31T09:54:21;100250.50;;;29.93;31.81
63654;BME280;49809;47.418;19.080;2023-07-31T09:57:49;100251.38;;;30.11;31.99
63654;BME280;49809;47.418;19.080;2023-07-31T10:01:29;100246.72;;;30.22;32.62
63654;BME280;49809;47.418;19.080;2023-07-31T10:05:03;100256.06;;;30.21;32.38
63654;BME280;49809;47.418;19.080;2023-07-31T10:08:34;100252.62;;;30.38;31.36
63654;BME280;49809;47.418;19.080;2023-07-31T10:12:13;100250.22;;;29.50;33.22
63654;BME280;49809;47.418;19.080;2023-07-31T10:15:34;100235.19;;;30.89;31.23
63654;BME280;49809;47.418;19.080;2023-07-31T10:18:54;100244.66;;;29.94;31.65
63654;BME280;49809;47.418;19.080;2023-07-31T10:22:13;100236.53;;;30.08;31.42
63654;BME280;49809;47.418;19.080;2023-07-31T10:26:10;100236.22;;;29.48;33.05
63654;BME280;49809;47.418;19.080;2023-07-31T10:29:54;100248.28;;;30.23;32.70
63654;BME280;49809;47.418;19.080;2023-07-31T10:33:38;100238.66;;;30.54;32.11
63654;BME280;49809;47.418;19.080;2023-07-31T10:37:24;100242.22;;;30.69;31.30
63654;BME280;49809;47.418;19.080;2023-07-31T10:41:09;100247.75;;;31.22;30.95
63654;BME280;49809;47.418;19.080;2023-07-31T10:44:47;100234.72;;;30.44;31.91
63654;BME280;49809;47.418;19.080;2023-07-31T10:48:33;100229.00;;;31.06;30.67
63654;BME280;49809;47.418;19.080;2023-07-31T10:52:23;100228.16;;;30.67;30.84
63654;BME280;49809;47.418;19.080;2023-07-31T10:56:00;100233.22;;;30.75;32.03
63654;BME280;49809;47.418;19.080;2023-07-31T10:59:45;100226.91;;;31.81;30.00
63654;BME280;49809;47.418;19.080;2023-07-31T11:03:56;100226.59;;;30.87;31.81
63654;BME280;49809;47.418;19.080;2023-07-31T11:12:10;100211.78;;;31.09;30.11
63654;BME280;49809;47.418;19.080;2023-07-31T13:12:14;100111.87;;;28.38;34.47
63654;BME280;49809;47.418;19.080;2023-07-31T13:20:36;100118.03;;;28.31;34.38
63654;BME280;49809;47.418;19.080;2023-07-31T13:34:04;100097.16;;;28.05;35.51
63654;BME280;49809;47.418;19.080;2023-07-31T18:51:27;100028.13;;;22.46;48.58
63654;BME280;49809;47.418;19.080;2023-07-31T19:03:00;100034.13;;;22.06;50.93
63654;BME280;49809;47.418;19.080;2023-07-31T21:29:41;100017.75;;;18.17;73.62
63654;BME280;49809;47.418;19.080;2023-07-31T21:33:18;100021.53;;;18.16;73.74
63654;BME280;49809;47.418;19.080;2023-07-31T21:36:43;100016.78;;;18.13;73.74
63654;BME280;49809;47.418;19.080;2023-07-31T21:40:20;100013.63;;;18.11;74.17
63654;BME280;49809;47.418;19.080;2023-07-31T21:52:14;100024.94;;;18.08;77.02
63654;BME280;49809;47.418;19.080;2023-07-31T21:55:56;100017.69;;;18.00;76.31
63654;BME280;49809;47.418;19.080;2023-07-31T22:06:58;100010.63;;;17.81;76.30
63654;BME280;49809;47.418;19.080;2023-07-31T22:10:21;100013.63;;;17.80;76.35
63654;BME280;49809;47.418;19.080;2023-07-31T22:14:10;100001.50;;;17.83;77.38
63654;BME280;49809;47.418;19.080;2023-07-31T22:17:51;100007.72;;;17.69;77.47
63654;BME280;49809;47.418;19.080;2023-07-31T22:21:31;100003.56;;;17.63;77.23
63654;BME280;49809;47.418;19.080;2023-07-31T22:25:40;99996.50;;;17.67;78.42
63654;BME280;49809;47.418;19.080;2023-07-31T22:29:26;99992.87;;;17.63;78.12
63654;BME280;49809;47.418;19.080;2023-07-31T22:32:53;99988.13;;;17.60;78.66
63654;BME280;49809;47.418;19.080;2023-07-31T22:36:32;99993.78;;;17.59;78.71
63654;BME280;49809;47.418;19.080;2023-07-31T22:44:32;99991.31;;;17.49;78.76
63654;BME280;49809;47.418;19.080;2023-07-31T22:58:41;99986.09;;;17.88;79.31
63654;BME280;49809;47.418;19.080;2023-07-31T23:02:48;99986.09;;;17.88;79.31
63654;BME280;49809;47.418;19.080;2023-07-31T23:06:28;99976.34;;;17.25;81.33
63654;BME280;49809;47.418;19.080;2023-07-31T23:10:31;99985.28;;;17.21;82.03
63654;BME280;49809;47.418;19.080;2023-07-31T23:25:47;99964.53;;;17.04;85.10
63654;BME280;49809;47.418;19.080;2023-07-31T23:29:27;99957.41;;;17.00;85.39
63654;BME280;49809;47.418;19.080;2023-07-31T23:40:48;99941.34;;;16.77;85.25
63654;BME280;49809;47.418;19.080;2023-07-31T23:44:46;99936.72;;;16.69;86.02
63654;BME280;49809;47.418;19.080;2023-07-31T23:48:28;99941.66;;;16.62;86.56
63654;BME280;49809;47.418;19.080;2023-07-31T23:51:42;99936.31;;;16.62;86.61
63654;BME280;49809;47.418;19.080;2023-07-31T23:55:20;99939.28;;;16.61;85.89
63654;BME280;49809;47.418;19.080;2023-07-31T23:59:14;99929.47;;;16.56;85.17
